Tarawa, North Carolina
Current Conditions -  °F | °C
As of 5:56 PM on Wednesday 17 Dec 2014 (Local Time) from KNCA Reporting Station
Clear Clear  
Wind Chill: 53°   Ceiling: Unl
Heat Index: 53°   Visibility: 10mi
Dew Point: 41°   Wind: 3mph
Humidity: 64%   Direction: 270°W
Pressure: 30.06"   Gusts: NA
Location:  34.7353°N, 77.3964°W
Report Text: KNCA 172256Z AUTO 27003KT 10SM CLR 12/05 A3006 RMK AO2 SLP182 T01170050
Loading
Personal Weather Stations






























Interactive Weather Map New forecast layout! Learn more

10-Day Weather Forecast

Advertisements
Track Severe Weather on mobile